createdAt,value
2023-07-20T00:00:18.621Z,0.90
2023-07-20T00:03:17.767Z,0.90
2023-07-20T00:06:05.466Z,1.00
2023-07-20T00:08:50.900Z,1.10
2023-07-20T00:11:40.555Z,1.10
2023-07-20T00:14:26.589Z,1.10
2023-07-20T00:17:12.372Z,1.30
2023-07-20T00:19:58.058Z,1.00
2023-07-20T00:22:43.436Z,0.90
2023-07-20T00:25:28.873Z,0.82
2023-07-20T00:28:14.517Z,1.20
2023-07-20T00:31:01.789Z,1.40
2023-07-20T00:33:49.558Z,1.45
2023-07-20T00:36:34.857Z,1.50
2023-07-20T00:39:21.295Z,1.05
2023-07-20T00:42:07.000Z,1.30
2023-07-20T00:44:52.733Z,1.10
2023-07-20T00:47:38.221Z,1.23
2023-07-20T00:50:24.006Z,1.35
2023-07-20T00:53:10.221Z,1.77
2023-07-20T00:55:56.240Z,1.27
2023-07-20T00:58:41.819Z,1.40
2023-07-20T01:01:27.495Z,1.40
2023-07-20T01:04:13.252Z,1.60
2023-07-20T01:07:15.272Z,1.60
2023-07-20T01:10:28.499Z,1.60
2023-07-20T01:13:15.404Z,1.70
2023-07-20T01:16:04.323Z,1.90
2023-07-20T01:18:49.801Z,1.80
2023-07-20T01:22:00.231Z,1.65
2023-07-20T01:25:00.217Z,1.90
2023-07-20T01:27:47.713Z,1.83
2023-07-20T01:30:51.902Z,2.33
2023-07-20T01:33:37.396Z,1.90
2023-07-20T01:36:25.738Z,1.77
2023-07-20T01:39:11.910Z,1.80
2023-07-20T01:41:57.698Z,1.77
2023-07-20T01:44:44.043Z,1.80
2023-07-20T01:47:29.330Z,1.83
2023-07-20T01:50:15.106Z,1.83
2023-07-20T01:53:00.738Z,1.70
2023-07-20T01:55:46.146Z,1.48
2023-07-20T01:58:33.247Z,1.30
2023-07-20T02:01:20.196Z,1.40
2023-07-20T02:04:05.661Z,1.40
2023-07-20T02:06:51.325Z,1.45
2023-07-20T02:09:36.710Z,1.55
2023-07-20T02:12:22.655Z,1.67
2023-07-20T02:15:09.407Z,1.33
2023-07-20T02:17:55.090Z,1.67
2023-07-20T02:20:42.335Z,1.60
2023-07-20T02:23:27.679Z,1.30
2023-07-20T02:26:13.337Z,1.30
2023-07-20T02:28:58.628Z,1.50
2023-07-20T02:31:44.599Z,1.67
2023-07-20T02:34:30.100Z,1.70
2023-07-20T02:37:15.801Z,1.77
2023-07-20T02:40:02.018Z,1.80
2023-07-20T02:42:48.504Z,1.35
2023-07-20T02:45:34.176Z,1.55
2023-07-20T02:48:20.103Z,1.63
2023-07-20T02:51:08.786Z,1.50
2023-07-20T02:53:54.426Z,1.63
2023-07-20T02:56:39.878Z,1.67
2023-07-20T02:59:25.269Z,1.63
2023-07-20T03:02:10.940Z,1.40
2023-07-20T03:04:58.482Z,1.40
2023-07-20T03:07:44.634Z,1.30
2023-07-20T03:10:30.462Z,1.45
2023-07-20T03:13:17.383Z,1.35
2023-07-20T03:16:02.633Z,1.20
2023-07-20T03:18:48.790Z,1.42
2023-07-20T03:21:34.658Z,1.20
2023-07-20T03:24:20.138Z,1.05
2023-07-20T03:27:07.250Z,1.17
2023-07-20T03:29:52.886Z,1.20
2023-07-20T03:32:38.960Z,1.20
2023-07-20T03:35:24.590Z,1.13
2023-07-20T03:38:10.094Z,1.00
2023-07-20T03:41:00.457Z,1.02
2023-07-20T03:43:46.042Z,1.20
2023-07-20T03:46:32.464Z,1.00
2023-07-20T03:49:19.054Z,1.13
2023-07-20T03:52:05.543Z,1.00
2023-07-20T03:54:52.375Z,0.70
2023-07-20T03:57:37.847Z,0.90
2023-07-20T04:00:23.592Z,0.90
2023-07-20T04:03:09.234Z,0.95
2023-07-20T04:05:58.696Z,1.10
2023-07-20T04:08:45.224Z,1.00
2023-07-20T04:11:30.835Z,0.80
2023-07-20T04:14:16.293Z,0.90
2023-07-20T04:17:01.963Z,0.90
2023-07-20T04:19:47.585Z,0.80
2023-07-20T04:22:33.257Z,0.80
2023-07-20T04:25:19.665Z,0.75
2023-07-20T04:28:05.523Z,0.77
2023-07-20T04:30:52.658Z,0.60
2023-07-20T04:33:38.243Z,0.60
2023-07-20T04:36:24.544Z,0.70
2023-07-20T04:39:18.180Z,0.40
2023-07-20T04:42:11.590Z,0.55
2023-07-20T04:44:57.165Z,0.80
2023-07-20T04:47:43.677Z,0.60
2023-07-20T04:50:29.282Z,0.80
2023-07-20T04:53:15.016Z,0.60
2023-07-20T04:56:00.910Z,0.60
2023-07-20T04:58:46.748Z,0.60
2023-07-20T05:01:32.807Z,0.60
2023-07-20T05:04:18.882Z,0.65
2023-07-20T05:07:05.086Z,0.65
2023-07-20T05:09:50.954Z,0.50
2023-07-20T05:12:36.403Z,0.50
2023-07-20T05:15:22.242Z,0.63
2023-07-20T05:18:07.848Z,0.50
2023-07-20T05:20:53.727Z,0.50
2023-07-20T05:23:39.397Z,0.40
2023-07-20T05:26:25.118Z,0.60
2023-07-20T05:29:11.166Z,0.40
2023-07-20T05:31:56.705Z,0.55
2023-07-20T05:34:42.227Z,0.60
2023-07-20T05:37:27.713Z,0.50
2023-07-20T05:40:14.140Z,0.47
2023-07-20T05:43:00.190Z,0.47
2023-07-20T05:45:49.098Z,0.52
2023-07-20T05:48:34.667Z,0.40
2023-07-20T05:51:20.384Z,0.50
2023-07-20T05:54:05.857Z,0.60
2023-07-20T05:56:51.540Z,0.50
2023-07-20T05:59:37.015Z,0.40
2023-07-20T06:02:22.645Z,0.40
2023-07-20T06:05:10.596Z,0.40
2023-07-20T06:07:56.590Z,0.40
2023-07-20T06:10:44.626Z,0.40
2023-07-20T06:13:31.183Z,0.40
2023-07-20T06:16:16.658Z,0.43
2023-07-20T06:19:02.063Z,0.40
2023-07-20T06:21:47.538Z,0.63
2023-07-20T06:24:33.066Z,0.40
2023-07-20T06:27:18.823Z,0.40
2023-07-20T06:30:04.782Z,0.30
2023-07-20T06:32:50.825Z,0.40
2023-07-20T06:35:37.172Z,0.40
2023-07-20T06:44:01.431Z,0.30
2023-07-20T06:46:46.848Z,0.35
2023-07-20T06:49:32.199Z,0.40
2023-07-20T06:52:17.741Z,0.43
2023-07-20T06:55:05.791Z,0.30
2023-07-20T06:57:52.638Z,0.43
2023-07-20T07:00:38.174Z,0.30
2023-07-20T07:03:28.359Z,0.30
2023-07-20T07:06:14.636Z,0.40
2023-07-20T07:09:00.521Z,0.30
2023-07-20T07:11:45.882Z,0.30
2023-07-20T07:14:31.025Z,0.38
2023-07-20T07:17:19.338Z,0.38
2023-07-20T07:20:08.325Z,0.30
2023-07-20T07:22:56.864Z,0.40
2023-07-20T07:25:43.559Z,0.30
2023-07-20T07:28:29.833Z,0.40
2023-07-20T07:31:16.179Z,0.43
2023-07-20T07:34:02.038Z,0.30
2023-07-20T07:36:48.494Z,0.20
2023-07-20T07:39:35.626Z,0.40
2023-07-20T07:42:23.977Z,0.30
2023-07-20T07:45:10.867Z,0.40
2023-07-20T07:47:56.113Z,0.47
2023-07-20T07:50:41.520Z,0.40
2023-07-20T07:53:27.193Z,0.50
2023-07-20T07:56:12.777Z,0.40
2023-07-20T07:58:58.181Z,0.40
2023-07-20T08:01:43.646Z,0.55
2023-07-20T08:04:28.924Z,0.50
2023-07-20T08:07:14.673Z,0.40
2023-07-20T08:10:01.742Z,0.50
2023-07-20T08:12:47.282Z,0.57
2023-07-20T08:15:32.978Z,0.30
2023-07-20T08:18:18.899Z,0.30
2023-07-20T08:21:04.729Z,0.55
2023-07-20T08:23:50.229Z,0.80
2023-07-20T08:26:35.823Z,0.70
2023-07-20T08:29:21.201Z,0.60
2023-07-20T08:32:07.669Z,0.60
2023-07-20T08:34:53.296Z,0.70
2023-07-20T08:37:38.826Z,0.70
2023-07-20T08:40:24.267Z,0.40
2023-07-20T08:43:11.668Z,0.50
2023-07-20T08:45:58.282Z,0.52
2023-07-20T08:48:45.179Z,0.50
2023-07-20T08:51:31.935Z,0.47
2023-07-20T08:54:17.693Z,0.55
2023-07-20T08:57:04.860Z,0.50
2023-07-20T08:59:53.565Z,0.60
2023-07-20T09:02:44.267Z,0.47
2023-07-20T09:05:30.072Z,0.47
2023-07-20T09:08:15.360Z,0.55
2023-07-20T09:11:01.026Z,0.55
2023-07-20T09:13:46.188Z,0.57
2023-07-20T09:16:31.646Z,0.50
2023-07-20T09:19:18.170Z,0.57
2023-07-20T09:22:06.403Z,0.52
2023-07-20T09:24:53.854Z,0.57
2023-07-20T09:27:40.337Z,0.50
2023-07-20T09:36:56.788Z,0.68
2023-07-20T09:39:29.401Z,0.80
2023-07-20T09:45:03.978Z,0.60
2023-07-20T09:48:35.292Z,0.60
2023-07-20T09:50:56.181Z,0.47
2023-07-20T09:53:41.523Z,0.40
2023-07-20T09:56:28.311Z,0.77
2023-07-20T09:59:14.124Z,0.38
2023-07-20T10:02:02.595Z,0.40
2023-07-20T10:04:49.814Z,0.50
2023-07-20T10:07:38.136Z,0.52
2023-07-20T10:10:26.423Z,0.60
2023-07-20T10:13:22.682Z,0.60
2023-07-20T10:16:11.683Z,0.60
2023-07-20T10:22:14.904Z,0.70
2023-07-20T10:25:00.721Z,0.70
2023-07-20T10:27:46.033Z,0.70
2023-07-20T10:30:32.799Z,1.33
2023-07-20T10:33:20.323Z,0.93
2023-07-20T10:36:06.831Z,1.23
2023-07-20T10:38:56.896Z,0.98
2023-07-20T10:41:42.321Z,0.85
2023-07-20T10:44:27.716Z,0.68
2023-07-20T10:47:14.306Z,0.70
2023-07-20T10:50:01.803Z,0.77
2023-07-20T10:53:06.316Z,1.00
2023-07-20T10:56:08.165Z,1.05
2023-07-20T10:58:59.899Z,0.70
2023-07-20T11:01:46.183Z,0.93
2023-07-20T11:04:44.990Z,0.70
2023-07-20T11:07:40.017Z,0.60
2023-07-20T11:10:25.484Z,0.50
2023-07-20T11:13:26.290Z,0.68
2023-07-20T11:16:11.690Z,0.63
2023-07-20T11:18:58.008Z,0.60
2023-07-20T11:22:00.850Z,0.65
2023-07-20T11:24:50.199Z,0.43
2023-07-20T11:27:46.456Z,0.50
2023-07-20T11:30:34.906Z,0.70
2023-07-20T11:33:20.187Z,0.47
2023-07-20T11:37:11.899Z,0.47
2023-07-20T11:39:14.146Z,0.52
2023-07-20T11:41:59.322Z,1.25
2023-07-20T11:44:44.834Z,0.98
2023-07-20T11:47:31.077Z,0.73
2023-07-20T11:50:17.226Z,1.00
2023-07-20T11:53:02.828Z,1.00
2023-07-20T11:55:48.708Z,0.93
2023-07-20T11:58:34.251Z,1.20
2023-07-20T12:01:21.411Z,0.93
2023-07-20T12:04:08.166Z,1.05
2023-07-20T12:06:56.242Z,0.75
2023-07-20T12:09:50.912Z,0.60
2023-07-20T12:12:45.368Z,0.73
2023-07-20T12:15:31.577Z,0.70
2023-07-20T12:18:17.191Z,0.55
2023-07-20T12:21:03.082Z,0.60
2023-07-20T12:23:48.504Z,0.95
2023-07-20T12:26:34.632Z,0.80
2023-07-20T12:29:19.908Z,0.70
2023-07-20T12:32:05.961Z,1.10
2023-07-20T12:34:52.367Z,0.60
2023-07-20T12:37:37.493Z,0.70
2023-07-20T12:40:23.360Z,0.50
2023-07-20T12:43:09.192Z,0.50
2023-07-20T12:45:54.752Z,0.82
2023-07-20T12:48:42.517Z,1.05
2023-07-20T12:51:27.696Z,1.00
2023-07-20T12:54:13.285Z,1.08
2023-07-20T12:59:47.234Z,1.10
2023-07-20T13:02:36.500Z,0.65
2023-07-20T13:06:28.261Z,0.70
2023-07-20T13:08:28.093Z,0.70
2023-07-20T13:11:13.514Z,0.75
2023-07-20T13:13:59.186Z,0.73
2023-07-20T13:16:44.632Z,0.70
2023-07-20T13:19:31.110Z,0.82
2023-07-20T13:22:16.874Z,0.80
2023-07-20T13:25:02.925Z,0.80
2023-07-20T13:27:48.498Z,0.70
2023-07-20T13:30:34.590Z,0.70
2023-07-20T13:33:20.468Z,0.80
2023-07-20T13:36:09.889Z,0.80
2023-07-20T13:38:55.518Z,0.65
2023-07-20T13:41:41.108Z,0.77
2023-07-20T13:44:26.604Z,0.60
2023-07-20T13:50:03.876Z,0.70
2023-07-20T13:52:49.850Z,0.70
2023-07-20T13:58:26.436Z,0.55
2023-07-20T14:01:11.996Z,0.70
2023-07-20T14:03:57.961Z,0.60
2023-07-20T14:06:44.993Z,0.50
2023-07-20T14:09:30.409Z,0.50
2023-07-20T14:12:18.516Z,0.50
2023-07-20T14:15:06.347Z,0.70
2023-07-20T14:17:52.679Z,0.60
2023-07-20T14:20:39.647Z,0.47
2023-07-20T14:23:27.282Z,0.60
2023-07-20T14:26:12.922Z,0.50
2023-07-20T14:28:59.290Z,0.70
2023-07-20T14:31:46.602Z,0.68
2023-07-20T14:34:33.738Z,0.70
2023-07-20T14:37:22.210Z,0.90
2023-07-20T14:40:09.296Z,0.68
2023-07-20T14:42:56.466Z,0.63
2023-07-20T14:45:43.565Z,0.50
2023-07-20T14:48:29.327Z,1.00
2023-07-20T14:51:14.754Z,0.95
2023-07-20T14:54:02.109Z,1.10
2023-07-20T14:56:53.954Z,0.60
2023-07-20T14:59:39.611Z,1.27
2023-07-20T15:02:26.322Z,0.70
2023-07-20T15:05:12.023Z,0.80
2023-07-20T15:07:57.572Z,0.77
2023-07-20T15:10:43.019Z,0.60
2023-07-20T15:13:28.793Z,0.70
2023-07-20T15:16:14.329Z,0.60
2023-07-20T15:18:59.802Z,0.80
2023-07-20T15:21:45.244Z,0.90
2023-07-20T15:24:31.137Z,0.80
2023-07-20T15:27:16.315Z,0.75
2023-07-20T15:30:02.176Z,0.90
2023-07-20T15:35:36.948Z,0.70
2023-07-20T15:38:22.203Z,0.80
2023-07-20T15:41:07.807Z,0.60
2023-07-20T15:43:53.905Z,0.80
2023-07-20T15:46:42.598Z,0.80
2023-07-20T15:49:31.177Z,0.90
2023-07-20T15:52:19.146Z,1.00
2023-07-20T15:55:05.636Z,1.88
2023-07-20T15:57:51.400Z,3.83
2023-07-20T16:00:37.280Z,1.30
2023-07-20T16:03:27.471Z,0.80
2023-07-20T16:06:22.944Z,0.98
2023-07-20T16:09:09.201Z,0.80
2023-07-20T16:11:54.674Z,0.70
2023-07-20T16:17:28.888Z,0.70
2023-07-20T16:20:14.590Z,0.70
2023-07-20T16:23:00.272Z,1.02
2023-07-20T16:25:48.831Z,1.10
2023-07-20T16:28:34.238Z,0.85
2023-07-20T16:31:19.797Z,0.68
2023-07-20T16:34:06.205Z,0.60
2023-07-20T16:45:20.492Z,0.60
2023-07-20T16:48:06.640Z,0.70
2023-07-20T16:50:52.028Z,0.90
2023-07-20T16:53:37.445Z,0.52
2023-07-20T16:56:22.891Z,0.50
2023-07-20T16:59:08.541Z,0.45
2023-07-20T17:01:54.073Z,0.50
2023-07-20T17:04:39.459Z,0.65
2023-07-20T17:07:26.036Z,0.70
2023-07-20T17:10:11.670Z,0.40
2023-07-20T17:12:57.074Z,0.50
2023-07-20T17:15:46.004Z,0.60
2023-07-20T17:18:31.362Z,0.50
2023-07-20T17:21:17.276Z,0.52
2023-07-20T17:24:03.060Z,0.45
2023-07-20T17:27:17.917Z,0.50
2023-07-20T17:29:55.008Z,0.60
2023-07-20T17:32:40.676Z,0.50
2023-07-20T17:35:27.786Z,0.50
2023-07-20T17:41:02.428Z,0.70
2023-07-20T17:43:47.777Z,0.68
2023-07-20T17:49:21.884Z,0.50
2023-07-20T17:52:07.507Z,0.50
2023-07-20T17:54:52.979Z,0.50
2023-07-20T17:57:38.582Z,0.60
2023-07-20T18:03:13.271Z,0.60
2023-07-20T18:06:10.417Z,0.60
2023-07-20T18:08:56.067Z,0.80
2023-07-20T18:11:41.657Z,0.70
2023-07-20T18:14:27.211Z,0.60
2023-07-20T18:17:13.209Z,0.60
2023-07-20T18:19:58.924Z,0.50
2023-07-20T18:22:44.542Z,0.60
2023-07-20T18:25:30.525Z,0.70
2023-07-20T18:28:16.091Z,0.70
2023-07-20T18:31:07.801Z,0.90
2023-07-20T18:33:53.529Z,2.08
2023-07-20T18:36:39.462Z,0.60
2023-07-20T18:39:24.664Z,0.50
2023-07-20T18:42:10.180Z,0.50
2023-07-20T18:44:56.125Z,0.60
2023-07-20T18:47:41.351Z,1.02
2023-07-20T18:50:27.116Z,0.60
2023-07-20T18:53:12.471Z,0.55
2023-07-20T18:55:58.058Z,0.70
2023-07-20T18:58:43.815Z,0.50
2023-07-20T19:01:29.230Z,0.73
2023-07-20T19:04:14.803Z,0.80
2023-07-20T19:07:00.119Z,0.70
2023-07-20T19:09:45.587Z,0.73
2023-07-20T19:12:31.017Z,0.63
2023-07-20T19:15:16.876Z,0.70
2023-07-20T19:18:02.184Z,0.80
2023-07-20T19:20:48.449Z,0.80
2023-07-20T19:23:34.456Z,0.70
2023-07-20T19:26:20.001Z,0.50
2023-07-20T19:29:05.483Z,0.70
2023-07-20T19:31:51.104Z,0.60
2023-07-20T19:34:36.469Z,0.70
2023-07-20T19:37:22.400Z,0.77
2023-07-20T19:40:10.152Z,0.57
2023-07-20T19:42:55.334Z,0.60
2023-07-20T19:45:41.162Z,0.70
2023-07-20T19:48:26.436Z,0.70
2023-07-20T19:51:12.231Z,0.70
2023-07-20T19:56:46.895Z,0.70
2023-07-20T19:59:32.939Z,0.88
2023-07-20T20:02:18.368Z,0.70
2023-07-20T20:05:04.107Z,0.52
2023-07-20T20:07:50.916Z,0.55
2023-07-20T20:13:28.785Z,0.65
2023-07-20T20:16:14.219Z,0.88
2023-07-20T20:18:59.636Z,0.70
2023-07-20T20:21:45.260Z,1.20
2023-07-20T20:24:31.912Z,1.70
2023-07-20T20:27:17.382Z,0.90
2023-07-20T20:30:03.062Z,1.02
2023-07-20T20:32:48.628Z,0.93
2023-07-20T20:35:34.070Z,0.98
2023-07-20T20:38:20.599Z,0.70
2023-07-20T20:41:07.794Z,1.10
2023-07-20T20:43:53.104Z,1.15
2023-07-20T20:46:39.042Z,1.00
2023-07-20T20:49:25.219Z,1.20
2023-07-20T20:52:10.543Z,1.05
2023-07-20T20:54:56.966Z,0.90
2023-07-20T20:57:42.317Z,1.23
2023-07-20T21:00:27.864Z,1.02
2023-07-20T21:03:13.260Z,1.10
2023-07-20T21:05:59.159Z,1.00
2023-07-20T21:08:44.812Z,1.33
2023-07-20T21:11:30.386Z,1.05
2023-07-20T21:14:16.000Z,1.45
2023-07-20T21:17:01.892Z,1.10
2023-07-20T21:19:47.599Z,1.20
2023-07-20T21:22:34.475Z,1.25
2023-07-20T21:25:20.271Z,1.20
2023-07-20T21:28:05.747Z,1.20
2023-07-20T21:31:08.497Z,1.30
2023-07-20T21:33:53.852Z,1.65
2023-07-20T21:36:39.395Z,1.40
2023-07-20T21:39:24.894Z,1.40
2023-07-20T21:42:10.357Z,1.20
2023-07-20T21:44:55.717Z,1.33
2023-07-20T21:47:41.125Z,2.92
2023-07-20T21:50:26.566Z,3.95
2023-07-20T21:53:12.157Z,2.72
2023-07-20T21:55:57.544Z,2.67
2023-07-20T21:58:43.118Z,2.22
2023-07-20T22:01:53.183Z,1.90
2023-07-20T22:04:33.684Z,1.85
2023-07-20T22:07:20.263Z,2.28
2023-07-20T22:10:06.514Z,2.00
2023-07-20T22:12:51.710Z,1.83
2023-07-20T22:15:37.499Z,1.90
2023-07-20T22:21:12.569Z,2.10
2023-07-20T22:23:58.158Z,1.95
2023-07-20T22:26:43.645Z,2.13
2023-07-20T22:29:32.087Z,2.08
2023-07-20T22:32:18.618Z,2.00
2023-07-20T22:35:05.228Z,1.83
2023-07-20T22:37:51.513Z,2.17
2023-07-20T22:40:36.866Z,1.70
2023-07-20T22:43:26.726Z,1.52
2023-07-20T22:46:12.554Z,1.83
2023-07-20T22:48:58.118Z,1.90
2023-07-20T22:51:43.897Z,1.60
2023-07-20T22:54:30.202Z,1.60
2023-07-20T22:57:15.788Z,1.60
2023-07-20T23:00:10.109Z,1.58
2023-07-20T23:02:59.105Z,1.35
2023-07-20T23:05:44.708Z,1.27
2023-07-20T23:08:30.961Z,1.10
2023-07-20T23:11:17.742Z,1.02
2023-07-20T23:14:03.171Z,1.42
2023-07-20T23:16:48.740Z,1.08
2023-07-20T23:19:33.929Z,1.75
2023-07-20T23:22:22.022Z,1.95
2023-07-20T23:25:08.142Z,2.05
2023-07-20T23:27:56.246Z,1.73
2023-07-20T23:30:49.293Z,1.60
2023-07-20T23:33:35.646Z,1.80
2023-07-20T23:36:21.862Z,2.10
2023-07-20T23:39:09.596Z,2.33
2023-07-20T23:41:56.567Z,2.17
2023-07-20T23:44:41.856Z,2.00
2023-07-20T23:47:28.002Z,2.00
2023-07-20T23:50:14.268Z,1.45
2023-07-20T23:53:00.194Z,2.80
2023-07-20T23:55:45.573Z,3.65
2023-07-20T23:58:40.621Z,3.33
